createdAt,value
2022-10-05T00:00:36.774Z,72.63
2022-10-05T00:03:03.023Z,75.50
2022-10-05T00:05:29.332Z,75.03
2022-10-05T00:07:55.763Z,81.00
2022-10-05T00:10:22.023Z,67.97
2022-10-05T00:12:48.264Z,65.95
2022-10-05T00:15:14.811Z,65.35
2022-10-05T00:17:41.067Z,66.25
2022-10-05T00:20:07.311Z,66.60
2022-10-05T00:22:33.604Z,69.93
2022-10-05T00:24:59.884Z,84.55
2022-10-05T00:27:26.144Z,88.88
2022-10-05T00:29:52.546Z,84.85
2022-10-05T00:32:18.799Z,74.47
2022-10-05T00:34:45.047Z,70.90
2022-10-05T00:37:11.305Z,59.45
2022-10-05T00:39:37.565Z,52.65
2022-10-05T00:42:03.815Z,56.85
2022-10-05T00:44:30.070Z,57.78
2022-10-05T00:46:56.324Z,56.78
2022-10-05T00:49:22.577Z,58.63
2022-10-05T00:51:48.831Z,66.25
2022-10-05T00:54:18.374Z,65.00
2022-10-05T00:56:45.179Z,65.45
2022-10-05T00:59:11.622Z,68.60
2022-10-05T01:01:37.904Z,61.95
2022-10-05T01:04:04.199Z,63.22
2022-10-05T01:06:30.442Z,70.25
2022-10-05T01:08:56.707Z,70.97
2022-10-05T01:11:22.983Z,76.28
2022-10-05T01:13:49.229Z,64.28
2022-10-05T01:16:15.734Z,59.17
2022-10-05T01:18:42.017Z,62.58
2022-10-05T01:21:08.283Z,57.22
2022-10-05T01:23:34.555Z,56.97
2022-10-05T01:26:00.805Z,60.72
2022-10-05T01:28:27.086Z,68.10
2022-10-05T01:30:53.443Z,70.63
2022-10-05T01:33:19.726Z,53.22
2022-10-05T01:35:45.986Z,45.60
2022-10-05T01:38:12.240Z,50.85
2022-10-05T01:40:38.508Z,52.47
2022-10-05T01:43:04.760Z,53.63
2022-10-05T01:45:31.103Z,70.00
2022-10-05T01:47:57.445Z,111.00
2022-10-05T01:50:23.778Z,100.25
2022-10-05T01:52:50.041Z,62.95
2022-10-05T01:55:16.291Z,60.28
2022-10-05T01:57:42.574Z,76.00
2022-10-05T02:00:08.877Z,92.35
2022-10-05T02:02:35.186Z,101.82
2022-10-05T02:05:02.861Z,103.45
2022-10-05T02:07:29.418Z,96.70
2022-10-05T02:09:55.708Z,102.18
2022-10-05T02:12:21.968Z,85.10
2022-10-05T02:14:48.233Z,89.78
2022-10-05T02:17:14.480Z,94.03
2022-10-05T02:19:40.756Z,88.65
2022-10-05T02:22:07.001Z,89.75
2022-10-05T02:24:33.318Z,88.35
2022-10-05T02:26:59.576Z,85.50
2022-10-05T02:29:25.849Z,95.68
2022-10-05T02:31:52.218Z,91.10
2022-10-05T02:34:18.515Z,83.95
2022-10-05T02:36:45.707Z,83.78
2022-10-05T02:39:12.168Z,107.68
2022-10-05T02:41:38.421Z,81.75
2022-10-05T02:44:04.675Z,121.90
2022-10-05T02:46:30.918Z,71.95
2022-10-05T02:48:57.199Z,119.25
2022-10-05T02:51:23.464Z,119.65
2022-10-05T02:53:49.716Z,97.07
2022-10-05T02:56:15.982Z,74.00
2022-10-05T02:58:42.288Z,60.47
2022-10-05T03:01:08.633Z,57.17
2022-10-05T03:03:34.919Z,63.63
2022-10-05T03:06:01.176Z,59.00
2022-10-05T03:08:27.427Z,62.42
2022-10-05T03:10:53.686Z,57.92
2022-10-05T03:13:19.940Z,60.88
2022-10-05T03:15:46.273Z,65.97
2022-10-05T03:18:12.570Z,64.40
2022-10-05T03:20:38.828Z,52.17
2022-10-05T03:23:05.109Z,55.03
2022-10-05T03:25:31.354Z,50.25
2022-10-05T03:27:57.719Z,46.75
2022-10-05T03:30:27.082Z,52.10
2022-10-05T03:32:53.336Z,48.38
2022-10-05T03:35:19.605Z,63.80
2022-10-05T03:37:45.845Z,71.35
2022-10-05T03:40:12.116Z,66.55
2022-10-05T03:42:38.373Z,72.20
2022-10-05T03:45:04.677Z,68.45
2022-10-05T03:47:31.024Z,64.50
2022-10-05T03:49:57.343Z,63.30
2022-10-05T03:52:23.634Z,59.97
2022-10-05T03:54:50.069Z,62.05
2022-10-05T03:57:16.327Z,59.90
2022-10-05T03:59:42.587Z,59.88
2022-10-05T04:02:08.882Z,57.80
2022-10-05T04:04:35.150Z,56.70
2022-10-05T04:07:01.398Z,55.63
2022-10-05T04:09:27.642Z,57.97
2022-10-05T04:11:53.923Z,64.05
2022-10-05T04:14:20.172Z,66.65
2022-10-05T04:16:46.657Z,59.05
2022-10-05T04:19:13.123Z,63.58
2022-10-05T04:21:39.387Z,67.85
2022-10-05T04:24:05.643Z,76.20
2022-10-05T04:26:31.900Z,71.68
2022-10-05T04:28:58.169Z,57.42
2022-10-05T04:31:24.467Z,56.20
2022-10-05T04:33:50.850Z,54.40
2022-10-05T04:36:17.087Z,56.00
2022-10-05T04:38:43.345Z,76.35
2022-10-05T04:41:09.588Z,65.32
2022-10-05T04:43:35.843Z,83.15
2022-10-05T04:46:02.112Z,56.90
2022-10-05T04:48:28.387Z,61.65
2022-10-05T04:50:54.674Z,78.70
2022-10-05T04:53:20.955Z,68.30
2022-10-05T04:55:47.255Z,67.22
2022-10-05T04:58:13.614Z,67.80
2022-10-05T05:00:39.913Z,71.88
2022-10-05T05:03:06.204Z,67.85
2022-10-05T05:05:32.452Z,70.35
2022-10-05T05:07:58.722Z,65.75
2022-10-05T05:10:24.966Z,72.13
2022-10-05T05:12:51.244Z,68.60
2022-10-05T05:15:17.528Z,69.00
2022-10-05T05:17:43.810Z,72.43
2022-10-05T05:20:10.075Z,62.65
2022-10-05T05:22:36.396Z,63.80
2022-10-05T05:25:04.398Z,58.42
2022-10-05T05:27:30.668Z,68.10
2022-10-05T05:29:56.911Z,71.50
2022-10-05T05:32:23.192Z,72.18
2022-10-05T05:34:49.448Z,75.22
2022-10-05T05:37:17.237Z,72.05
2022-10-05T05:39:43.512Z,73.20
2022-10-05T05:42:09.782Z,74.30
2022-10-05T05:44:38.818Z,78.63
2022-10-05T05:47:05.721Z,72.28
2022-10-05T05:49:32.060Z,77.22
2022-10-05T05:51:58.307Z,53.80
2022-10-05T05:54:24.598Z,54.42
2022-10-05T05:56:50.839Z,46.13
2022-10-05T05:59:17.100Z,62.17
2022-10-05T06:01:44.658Z,82.95
2022-10-05T06:04:11.322Z,62.08
2022-10-05T06:06:37.577Z,63.85
2022-10-05T06:09:03.826Z,65.30
2022-10-05T06:11:30.104Z,79.82
2022-10-05T06:13:56.362Z,96.82
2022-10-05T06:16:23.175Z,110.07
2022-10-05T06:18:49.498Z,101.10
2022-10-05T06:21:15.760Z,75.40
2022-10-05T06:23:42.024Z,95.53
2022-10-05T06:26:10.878Z,86.00
2022-10-05T06:28:37.714Z,82.75
2022-10-05T06:31:04.365Z,69.85
2022-10-05T06:33:30.628Z,72.90
2022-10-05T06:35:56.871Z,76.40
2022-10-05T06:38:23.110Z,64.47
2022-10-05T06:40:49.352Z,65.10
2022-10-05T06:43:15.638Z,74.05
2022-10-05T06:45:41.962Z,72.20
2022-10-05T06:48:08.363Z,72.20
2022-10-05T06:50:34.610Z,79.13
2022-10-05T06:53:00.883Z,80.82
2022-10-05T06:55:27.139Z,81.75
2022-10-05T06:57:53.398Z,83.63
2022-10-05T07:00:20.015Z,84.80
2022-10-05T07:02:46.335Z,93.20
2022-10-05T07:05:12.587Z,89.53
2022-10-05T07:07:38.867Z,81.95
2022-10-05T07:10:05.137Z,83.65
2022-10-05T07:12:31.382Z,76.18
2022-10-05T07:14:57.702Z,74.35
2022-10-05T07:17:23.974Z,72.30
2022-10-05T07:19:52.348Z,76.57
2022-10-05T07:22:18.864Z,83.18
2022-10-05T07:24:45.121Z,88.05
2022-10-05T07:27:11.378Z,92.50
2022-10-05T07:29:37.620Z,76.45
2022-10-05T07:32:04.192Z,93.70
2022-10-05T07:34:30.447Z,104.50
2022-10-05T07:37:15.033Z,125.65
2022-10-05T07:39:59.554Z,145.02
2022-10-05T07:42:26.640Z,148.98
2022-10-05T07:44:52.896Z,136.02
2022-10-05T07:47:19.164Z,109.80
2022-10-05T07:49:45.462Z,92.47
2022-10-05T07:52:11.942Z,83.60
2022-10-05T07:54:38.230Z,97.95
2022-10-05T07:57:04.518Z,79.55
2022-10-05T07:59:31.003Z,69.38
2022-10-05T08:01:57.303Z,64.47
2022-10-05T08:04:23.585Z,78.25
2022-10-05T08:06:50.395Z,64.30
2022-10-05T08:09:16.849Z,96.20
2022-10-05T08:11:43.347Z,71.10
2022-10-05T08:14:10.408Z,68.97
2022-10-05T08:16:36.818Z,75.38
2022-10-05T08:19:03.091Z,84.28
2022-10-05T08:21:29.339Z,72.60
2022-10-05T08:23:56.521Z,51.67
2022-10-05T08:26:22.830Z,93.50
2022-10-05T08:28:50.962Z,50.78
2022-10-05T08:31:17.245Z,89.78
2022-10-05T08:33:43.599Z,80.65
2022-10-05T08:36:10.591Z,95.00
2022-10-05T08:38:36.835Z,58.80
2022-10-05T08:41:03.114Z,102.85
2022-10-05T08:43:34.374Z,87.93
2022-10-05T08:46:01.618Z,61.63
2022-10-05T08:48:28.078Z,86.57
2022-10-05T08:50:54.337Z,62.42
2022-10-05T08:53:20.586Z,54.58
2022-10-05T08:55:46.866Z,56.45
2022-10-05T08:58:13.126Z,55.83
2022-10-05T09:00:39.687Z,119.28
2022-10-05T09:03:06.172Z,109.97
2022-10-05T09:05:32.430Z,84.60
2022-10-05T09:07:58.684Z,61.17
2022-10-05T09:10:24.996Z,60.92
2022-10-05T09:12:51.254Z,62.05
2022-10-05T09:15:26.304Z,69.40
2022-10-05T09:17:53.107Z,87.97
2022-10-05T09:20:19.914Z,64.10
2022-10-05T09:22:46.273Z,65.00
2022-10-05T09:25:12.616Z,71.78
2022-10-05T09:27:38.884Z,141.98
2022-10-05T09:30:05.355Z,168.43
2022-10-05T09:32:31.986Z,74.47
2022-10-05T09:34:58.273Z,79.82
2022-10-05T09:37:26.405Z,139.88
2022-10-05T09:39:54.260Z,107.80
2022-10-05T09:42:22.205Z,151.30
2022-10-05T09:44:48.487Z,245.15
2022-10-05T09:47:14.733Z,74.45
2022-10-05T09:49:40.991Z,69.03
2022-10-05T09:52:07.443Z,98.28
2022-10-05T09:54:33.710Z,142.18
2022-10-05T09:57:00.133Z,247.10
2022-10-05T09:59:27.221Z,109.22
2022-10-05T10:01:53.547Z,80.07
2022-10-05T10:04:20.318Z,132.25
2022-10-05T10:06:46.591Z,195.38
2022-10-05T10:09:12.853Z,156.13
2022-10-05T10:11:39.165Z,82.50
2022-10-05T10:14:05.452Z,206.02
2022-10-05T10:16:31.756Z,167.80
2022-10-05T10:18:58.008Z,109.05
2022-10-05T10:21:24.297Z,102.90
2022-10-05T10:23:50.591Z,101.78
2022-10-05T10:26:16.887Z,160.18
2022-10-05T10:28:43.142Z,120.35
2022-10-05T10:31:09.460Z,104.00
2022-10-05T10:33:35.744Z,125.47
2022-10-05T10:36:06.005Z,218.63
2022-10-05T10:38:33.395Z,240.15
2022-10-05T10:40:59.690Z,231.52
2022-10-05T10:43:26.451Z,288.85
2022-10-05T10:45:54.198Z,292.70
2022-10-05T10:48:20.459Z,251.35
2022-10-05T10:50:46.719Z,186.55
2022-10-05T10:53:12.996Z,113.63
2022-10-05T10:55:39.256Z,130.30
2022-10-05T10:58:05.539Z,114.68
2022-10-05T11:00:31.786Z,122.90
2022-10-05T11:03:01.454Z,190.77
2022-10-05T11:05:27.872Z,301.60
2022-10-05T11:07:54.177Z,352.02
2022-10-05T11:10:20.425Z,185.93
2022-10-05T11:12:47.547Z,91.57
2022-10-05T11:15:13.813Z,93.35
2022-10-05T11:17:40.058Z,114.43
2022-10-05T11:20:06.361Z,1999.90
2022-10-05T11:22:32.639Z,1544.97
2022-10-05T11:24:58.947Z,1999.90
2022-10-05T11:27:25.204Z,1999.90
2022-10-05T11:29:51.464Z,1999.90
2022-10-05T11:32:17.718Z,1999.90
2022-10-05T11:34:44.018Z,1999.90
2022-10-05T11:37:10.273Z,1999.90
2022-10-05T11:39:39.788Z,1999.90
2022-10-05T11:42:06.190Z,1999.90
2022-10-05T11:44:32.448Z,1999.90
2022-10-05T11:46:58.712Z,1999.90
2022-10-05T11:49:24.977Z,1999.90
2022-10-05T11:51:51.601Z,1999.90
2022-10-05T11:54:18.163Z,1999.90
2022-10-05T11:56:44.427Z,1999.90
2022-10-05T11:59:10.683Z,1999.90
2022-10-05T12:01:36.968Z,1999.90
2022-10-05T12:04:03.345Z,1999.90
2022-10-05T12:06:29.661Z,1999.90
2022-10-05T12:08:56.031Z,1999.90
2022-10-05T12:11:22.290Z,1999.90
2022-10-05T12:13:48.574Z,1999.90
2022-10-05T12:16:14.854Z,1999.90
2022-10-05T12:18:41.256Z,1999.90
2022-10-05T12:21:07.517Z,1999.90
2022-10-05T12:23:34.539Z,1999.90
2022-10-05T12:26:00.747Z,1999.90
2022-10-05T12:28:27.140Z,1999.90
2022-10-05T12:30:53.530Z,1999.90
2022-10-05T12:33:20.122Z,1999.90
2022-10-05T12:35:48.997Z,1999.90
2022-10-05T12:38:15.624Z,1999.90
2022-10-05T12:40:41.977Z,1999.90
2022-10-05T12:43:08.420Z,1999.90
2022-10-05T12:45:34.716Z,1999.90
2022-10-05T12:48:02.138Z,1999.90
2022-10-05T12:50:28.745Z,1999.90
2022-10-05T12:52:55.918Z,1999.90
2022-10-05T12:55:25.908Z,1999.90
2022-10-05T12:57:52.164Z,1999.90
2022-10-05T13:00:22.685Z,1999.90
2022-10-05T13:02:50.843Z,1999.90
2022-10-05T13:05:17.141Z,1999.90
2022-10-05T13:07:43.395Z,1999.90
2022-10-05T13:10:09.756Z,1999.90
2022-10-05T13:12:36.108Z,1999.90
2022-10-05T13:15:02.484Z,1999.90
2022-10-05T13:17:28.750Z,1999.90
2022-10-05T13:19:54.999Z,1999.90
2022-10-05T13:22:22.542Z,1999.90
2022-10-05T13:24:48.794Z,1999.90
2022-10-05T13:27:15.111Z,1999.90
2022-10-05T13:29:41.362Z,1999.90
2022-10-05T13:32:07.659Z,1999.90
2022-10-05T13:34:47.039Z,1999.90
2022-10-05T13:37:13.382Z,1999.90
2022-10-05T13:39:40.716Z,1999.90
2022-10-05T13:42:07.025Z,1999.90
2022-10-05T13:44:33.287Z,1999.90
2022-10-05T13:46:59.599Z,1999.90
2022-10-05T13:49:29.440Z,1999.90
2022-10-05T13:51:55.739Z,1999.90
2022-10-05T13:54:22.014Z,1999.90
2022-10-05T13:56:48.278Z,1999.90
2022-10-05T13:59:14.561Z,1999.90
2022-10-05T14:01:43.709Z,1999.90
2022-10-05T14:04:09.967Z,1999.90
2022-10-05T14:06:36.232Z,1999.90
2022-10-05T14:09:02.528Z,1999.90
2022-10-05T14:11:28.854Z,1999.90
2022-10-05T14:13:55.127Z,1999.90
2022-10-05T14:16:21.483Z,1999.90
2022-10-05T14:18:47.822Z,1999.90
2022-10-05T14:21:14.264Z,1999.90
2022-10-05T14:23:40.747Z,1999.90
2022-10-05T14:26:07.009Z,1999.90
2022-10-05T14:28:33.344Z,1999.90
2022-10-05T14:30:59.845Z,1999.90
2022-10-05T14:33:26.111Z,1999.90
2022-10-05T14:35:52.392Z,1999.90
2022-10-05T14:38:18.642Z,1999.90
2022-10-05T14:40:44.906Z,1999.90
2022-10-05T14:43:11.195Z,1999.90
2022-10-05T14:45:37.497Z,1999.90
2022-10-05T14:48:05.209Z,1999.90
2022-10-05T14:50:31.580Z,1999.90
2022-10-05T14:52:58.067Z,1999.90
2022-10-05T14:55:24.322Z,1999.90
2022-10-05T14:57:50.594Z,1999.90
2022-10-05T15:00:16.910Z,1999.90
2022-10-05T15:02:45.038Z,1999.90
2022-10-05T15:05:14.261Z,1999.90
2022-10-05T15:07:40.534Z,1999.90
2022-10-05T15:10:06.793Z,1999.90
2022-10-05T15:12:33.134Z,1999.90
2022-10-05T15:14:59.387Z,1999.90
2022-10-05T15:17:26.973Z,1999.90
2022-10-05T15:19:53.231Z,1999.90
2022-10-05T15:22:19.486Z,1999.90
2022-10-05T15:24:45.786Z,1999.90
2022-10-05T15:27:12.128Z,1999.90
2022-10-05T15:29:38.404Z,1999.90
2022-10-05T15:32:04.693Z,1999.90
2022-10-05T15:34:30.968Z,1999.90
2022-10-05T15:36:57.237Z,1999.90
2022-10-05T15:39:23.506Z,1999.90
2022-10-05T15:41:49.799Z,1999.90
2022-10-05T15:44:16.058Z,1999.90
2022-10-05T15:46:42.313Z,1999.90
2022-10-05T15:49:08.675Z,1999.90
2022-10-05T15:51:34.978Z,1999.90
2022-10-05T15:54:19.921Z,1999.90
2022-10-05T15:56:46.171Z,1999.90
2022-10-05T15:59:17.640Z,1999.90
2022-10-05T16:01:44.184Z,1999.90
2022-10-05T16:04:10.490Z,1999.90
2022-10-05T16:06:55.325Z,1999.90
2022-10-05T16:09:21.591Z,1999.90
2022-10-05T16:11:47.873Z,1999.90
2022-10-05T16:14:14.143Z,1999.90
2022-10-05T16:16:41.911Z,1999.90
2022-10-05T16:19:08.228Z,1999.90
2022-10-05T16:21:34.489Z,1999.90
2022-10-05T16:24:04.992Z,1999.90
2022-10-05T16:26:32.620Z,1999.90
2022-10-05T16:28:58.923Z,1999.90
2022-10-05T16:31:25.226Z,1999.90
2022-10-05T16:33:54.348Z,1999.90
2022-10-05T16:36:22.669Z,1999.90
2022-10-05T16:38:48.951Z,1999.90
2022-10-05T16:41:15.215Z,1999.90
2022-10-05T16:43:41.630Z,1999.90
2022-10-05T16:46:10.236Z,1999.90
2022-10-05T16:48:36.761Z,1999.90
2022-10-05T16:51:03.024Z,1999.90
2022-10-05T16:53:29.391Z,1999.90
2022-10-05T16:55:55.670Z,1999.90
2022-10-05T16:58:22.202Z,1999.90
2022-10-05T17:00:51.542Z,1999.90
2022-10-05T17:03:17.801Z,1999.90
2022-10-05T17:05:44.290Z,1999.90
2022-10-05T17:08:10.568Z,1999.90
2022-10-05T17:10:37.117Z,1999.90
2022-10-05T17:13:03.418Z,1999.90
2022-10-05T17:15:29.831Z,1999.90
2022-10-05T17:17:57.592Z,1999.90
2022-10-05T17:20:23.866Z,164.73
2022-10-05T17:22:51.007Z,270.98
2022-10-05T17:25:22.391Z,399.48
2022-10-05T17:27:50.801Z,428.10
2022-10-05T17:30:17.441Z,357.83
2022-10-05T17:32:43.710Z,276.77
2022-10-05T17:35:10.713Z,179.77
2022-10-05T17:37:38.943Z,134.68
2022-10-05T17:40:05.204Z,124.40
2022-10-05T17:42:31.742Z,120.50
2022-10-05T17:44:58.310Z,133.60
2022-10-05T17:47:24.600Z,156.68
2022-10-05T17:50:10.817Z,217.18
2022-10-05T17:52:59.998Z,224.73
2022-10-05T17:55:28.486Z,164.68
2022-10-05T17:57:58.541Z,134.85
2022-10-05T18:00:25.034Z,110.93
2022-10-05T18:02:51.326Z,95.80
2022-10-05T18:05:17.606Z,90.15
2022-10-05T18:07:48.048Z,92.82
2022-10-05T18:10:17.249Z,101.95
2022-10-05T18:12:44.007Z,110.78
2022-10-05T18:15:10.269Z,122.95
2022-10-05T18:17:36.615Z,124.95
2022-10-05T18:20:02.896Z,156.40
2022-10-05T18:22:30.220Z,227.07
2022-10-05T18:25:03.449Z,267.85
2022-10-05T18:27:34.017Z,245.15
2022-10-05T18:30:03.020Z,163.95
2022-10-05T18:32:29.276Z,81.65
2022-10-05T18:34:58.648Z,71.82
2022-10-05T18:37:29.490Z,122.15
2022-10-05T18:39:55.840Z,219.02
2022-10-05T18:42:22.893Z,152.55
2022-10-05T18:44:49.079Z,108.87
2022-10-05T18:47:15.338Z,143.43
2022-10-05T18:49:42.222Z,255.05
2022-10-05T18:52:08.491Z,398.17
2022-10-05T18:54:34.821Z,183.85
2022-10-05T18:57:01.091Z,112.05
2022-10-05T18:59:27.354Z,141.73
2022-10-05T19:01:53.879Z,109.32
2022-10-05T19:04:22.353Z,95.68
2022-10-05T19:06:48.612Z,112.85
2022-10-05T19:09:14.902Z,141.82
2022-10-05T19:11:41.975Z,107.22
2022-10-05T19:14:08.166Z,97.17
2022-10-05T19:16:34.476Z,95.32
2022-10-05T19:19:00.756Z,103.03
2022-10-05T19:21:27.003Z,110.68
2022-10-05T19:23:53.307Z,100.00
2022-10-05T19:26:19.603Z,94.00
2022-10-05T19:28:45.906Z,79.40
2022-10-05T19:31:12.250Z,76.10
2022-10-05T19:33:38.791Z,60.92
2022-10-05T19:36:05.050Z,63.58
2022-10-05T19:38:31.397Z,99.78
2022-10-05T19:40:57.730Z,119.68
2022-10-05T19:43:24.094Z,83.97
2022-10-05T19:45:50.436Z,69.78
2022-10-05T19:48:16.684Z,69.05
2022-10-05T19:50:43.141Z,72.88
2022-10-05T19:53:10.235Z,74.80
2022-10-05T19:55:36.476Z,83.17
2022-10-05T19:58:02.806Z,75.70
2022-10-05T20:00:31.176Z,61.65
2022-10-05T20:02:57.853Z,60.13
2022-10-05T20:05:24.124Z,70.70
2022-10-05T20:07:50.527Z,77.85
2022-10-05T20:10:19.640Z,60.80
2022-10-05T20:12:45.933Z,57.53
2022-10-05T20:15:30.944Z,60.50
2022-10-05T20:18:15.790Z,70.57
2022-10-05T20:20:47.025Z,72.68
2022-10-05T20:23:15.549Z,68.80
2022-10-05T20:25:41.827Z,73.55
2022-10-05T20:28:08.160Z,76.25
2022-10-05T20:30:34.478Z,82.93
2022-10-05T20:33:01.539Z,84.90
2022-10-05T20:35:29.615Z,85.67
2022-10-05T20:40:27.447Z,69.15
2022-10-05T20:42:53.693Z,75.38
2022-10-05T20:45:19.944Z,86.07
2022-10-05T20:47:47.232Z,73.97
2022-10-05T20:50:13.510Z,77.97
2022-10-05T20:52:39.786Z,77.13
2022-10-05T20:55:06.112Z,78.47
2022-10-05T20:57:32.440Z,81.10
2022-10-05T20:59:58.687Z,88.07
2022-10-05T21:02:24.951Z,91.93
2022-10-05T21:04:51.256Z,74.95
2022-10-05T21:07:17.553Z,67.93
2022-10-05T21:09:44.585Z,69.60
2022-10-05T21:12:10.798Z,69.30
2022-10-05T21:14:37.654Z,81.63
2022-10-05T21:17:03.904Z,88.00
2022-10-05T21:19:30.280Z,82.32
2022-10-05T21:21:59.302Z,86.13
2022-10-05T21:24:25.613Z,90.63
2022-10-05T21:26:51.879Z,91.47
2022-10-05T21:29:18.119Z,78.53
2022-10-05T21:31:44.486Z,75.43
2022-10-05T21:34:10.926Z,73.97
2022-10-05T21:36:37.183Z,100.45
2022-10-05T21:39:03.423Z,65.20
2022-10-05T21:41:29.754Z,96.75
2022-10-05T21:43:56.061Z,125.15
2022-10-05T21:46:22.326Z,117.68
2022-10-05T21:48:48.590Z,103.28
2022-10-05T21:51:16.518Z,79.40
2022-10-05T21:53:42.779Z,67.82
2022-10-05T21:56:09.057Z,62.45
2022-10-05T21:58:35.298Z,56.83
2022-10-05T22:01:01.616Z,71.38
2022-10-05T22:03:27.911Z,82.10
2022-10-05T22:05:54.365Z,93.05
2022-10-05T22:08:20.624Z,91.40
2022-10-05T22:10:47.036Z,87.10
2022-10-05T22:13:13.302Z,76.50
2022-10-05T22:15:40.508Z,65.78
2022-10-05T22:18:06.768Z,68.28
2022-10-05T22:20:34.359Z,64.20
2022-10-05T22:23:00.618Z,63.80
2022-10-05T22:25:26.874Z,73.57
2022-10-05T22:27:53.124Z,66.30
2022-10-05T22:30:19.377Z,66.97
2022-10-05T22:32:45.643Z,79.60
2022-10-05T22:35:12.053Z,68.53
2022-10-05T22:37:38.414Z,69.28
2022-10-05T22:40:04.663Z,69.40
2022-10-05T22:42:31.063Z,74.07
2022-10-05T22:44:58.514Z,87.30
2022-10-05T22:47:24.777Z,63.92
2022-10-05T22:49:51.050Z,58.47
2022-10-05T22:52:17.303Z,70.43
2022-10-05T22:54:43.582Z,62.53
2022-10-05T22:57:09.835Z,57.25
2022-10-05T22:59:36.087Z,55.75
2022-10-05T23:02:02.417Z,110.40
2022-10-05T23:04:28.812Z,83.35
2022-10-05T23:06:55.080Z,137.48
2022-10-05T23:09:21.326Z,163.02
2022-10-05T23:11:51.905Z,72.05
2022-10-05T23:14:18.899Z,62.38
2022-10-05T23:16:45.185Z,85.57
2022-10-05T23:19:12.278Z,71.63
2022-10-05T23:21:38.518Z,72.47
2022-10-05T23:24:04.768Z,56.65
2022-10-05T23:26:31.115Z,55.25
2022-10-05T23:28:57.388Z,60.42
2022-10-05T23:31:23.662Z,102.22
2022-10-05T23:33:49.923Z,117.47
2022-10-05T23:36:16.184Z,93.88
2022-10-05T23:38:42.458Z,84.30
2022-10-05T23:41:09.446Z,87.60
2022-10-05T23:43:35.690Z,64.35
2022-10-05T23:46:02.023Z,64.13
2022-10-05T23:48:28.630Z,70.63
2022-10-05T23:50:55.856Z,91.13
2022-10-05T23:53:22.119Z,89.90
2022-10-05T23:55:48.372Z,86.18
2022-10-05T23:58:14.646Z,91.03
